Abis Bremen — PCJO — position and weather

sailwx.info

Track history (hours):
 
Tides and Currents Weather Stations Pressure Air Temp Water Temp Dewpoint Dewpoint Depression Visibility Wind Speed Wind Dir Waves Ship Positions

Abis Bremen

Last reported at 2017-Nov-20 00:30 UTC. Time now 2017-Nov-21 08:19 UTC.
Position N 51°41' E 004°36'.

Length 90 m; draft 5.2 m.

Type: Ship. MMSI: 246778880.

Date/timePositionNaut miles runAvg speedWind from/ knotsBaromVisibWave heightAir tempDewpointWater temp
2017-Nov-20 00:30N 51°41' E 004°36'0 0.0
2017-Nov-20 00:00N 51°41' E 004°36'0 0.0
2017-Nov-19 23:30N 51°41' E 004°36'0 0.0
2017-Nov-19 23:00N 51°41' E 004°36'0 0.0
2017-Nov-19 22:27N 51°41' E 004°36'0 0.0
2017-Nov-19 22:00N 51°41' E 004°36'0 0.0
2017-Nov-19 21:30N 51°41' E 004°36'0 0.0
2017-Nov-19 21:00N 51°41' E 004°36'0 0.0
2017-Nov-19 20:30N 51°41' E 004°36'0 0.0
2017-Nov-19 20:00N 51°41' E 004°36'0 0.0
2017-Nov-19 19:30N 51°41' E 004°36'0 0.0
2017-Nov-19 19:00N 51°41' E 004°36'0 0.0
2017-Nov-19 18:27N 51°41' E 004°36'0 0.0
2017-Nov-19 18:00N 51°41' E 004°36'0 0.0
2017-Nov-19 17:30N 51°41' E 004°36'0 0.0
2017-Nov-19 17:00N 51°41' E 004°36'0 0.0
2017-Nov-19 16:30N 51°41' E 004°36'0 0.0
2017-Nov-19 16:00N 51°41' E 004°36'0 0.0
2017-Nov-19 15:30N 51°41' E 004°36'0 0.0
2017-Nov-19 15:00N 51°41' E 004°36'0 0.0
2017-Nov-19 14:27N 51°41' E 004°36'0 0.0
2017-Nov-19 14:00N 51°41' E 004°36'0 0.0
2017-Nov-19 13:30N 51°41' E 004°36'0 0.0
2017-Nov-19 13:00N 51°41' E 004°36'0 0.0
2017-Nov-19 12:30N 51°41' E 004°36'0 0.0
2017-Nov-19 12:00N 51°41' E 004°36'0 0.0
2017-Nov-19 11:30N 51°41' E 004°36'0 0.0
2017-Nov-19 11:00N 51°41' E 004°36'0 0.0
2017-Nov-19 10:30N 51°41' E 004°36'0 0.0
2017-Nov-19 10:00N 51°41' E 004°36'0 0.0
2017-Nov-19 09:30N 51°41' E 004°36'0 0.0
2017-Nov-19 09:00N 51°41' E 004°36'0 0.0
2017-Nov-19 08:30N 51°41' E 004°36'0 0.0
2017-Nov-19 07:57N 51°41' E 004°36'0 0.0
2017-Nov-19 07:30N 51°41' E 004°36'0 0.0
2017-Nov-19 07:00N 51°41' E 004°36'0 0.0
2017-Nov-19 06:27N 51°41' E 004°36'0 0.0
2017-Nov-19 06:00N 51°41' E 004°36'1 1.1
2017-Nov-19 05:30N 51°42' E 004°35'4 8.6
2017-Nov-19 05:00N 51°46' E 004°38'510.4
2017-Nov-19 04:30N 51°50' E 004°33'612.4
2017-Nov-19 04:00N 51°51' E 004°23'510.6
2017-Nov-19 03:30N 51°54' E 004°16'713.6
2017-Nov-19 03:00N 51°58' E 004°08'611.8
2017-Nov-19 02:31N 52°00' E 003°59'611.7
2017-Nov-19 02:00N 52°00' E 003°49'611.0
2017-Nov-19 01:29N 51°59' E 003°40'10 9.5
2017-Nov-19 00:24N 51°55' E 003°24'410.0
2017-Nov-19 00:00N 51°54' E 003°18'9 7.8
2017-Nov-18 22:51N 51°51' E 003°04'17 4.4
2017-Nov-18 18:54N 51°45' E 002°38'13 5.8
2017-Nov-18 16:38N 51°35' E 002°24'1 7.1
2017-Nov-18 16:30N 51°34' E 002°23'4 7.2
2017-Nov-18 16:00N 51°31' E 002°20'4 7.4
2017-Nov-18 15:31N 51°28' E 002°16'4 7.8
2017-Nov-18 15:00N 51°25' E 002°12'4 8.2
2017-Nov-18 14:31N 51°22' E 002°09'4 8.2
2017-Nov-18 14:01N 51°18' E 002°06'4 8.7
2017-Nov-18 13:30N 51°14' E 002°03'5 9.3
2017-Nov-18 13:00N 51°11' E 001°57'510.0
2017-Nov-18 12:31N 51°08' E 001°51'510.3
2017-Nov-18 12:00N 51°04' E 001°45'510.6
2017-Nov-18 11:30N 51°00' E 001°39'510.7
2017-Nov-18 11:00N 50°57' E 001°34'510.1
2017-Nov-18 10:30N 50°52' E 001°29'31 8.2
2017-Nov-18 06:43N 50°30' E 000°54'3 9.5
2017-Nov-18 06:22N 50°30' E 000°49'4 9.4
2017-Nov-18 05:59N 50°28' E 000°44'27 8.6
2017-Nov-18 02:52N 50°21' E 000°03'4 8.3
2017-Nov-18 02:21N 50°20' W 000°03'3 8.2
2017-Nov-18 02:00N 50°20' W 000°08'4 8.1
2017-Nov-18 01:29N 50°19' W 000°14'28 8.7
2017-Nov-17 22:19N 50°16' W 000°57'711.1
2017-Nov-17 21:44N 50°15' W 001°07'311.6
2017-Nov-17 21:30N 50°15' W 001°12'612.0
2017-Nov-17 21:00N 50°15' W 001°21'612.4
2017-Nov-17 20:30N 50°15' W 001°31'4012.6
2017-Nov-17 17:21N 50°12' W 002°32'510.8
2017-Nov-17 16:55N 50°11' W 002°40'410.4
2017-Nov-17 16:30N 50°11' W 002°46'510.3
2017-Nov-17 16:00N 50°10' W 002°54'5 9.9
2017-Nov-17 15:30N 50°09' W 003°02'5 9.8
2017-Nov-17 15:00N 50°08' W 003°09'5 9.3
2017-Nov-17 14:30N 50°07' W 003°16'4 8.9
2017-Nov-17 14:00N 50°06' W 003°23'6 8.4
2017-Nov-17 13:18N 50°05' W 003°32'2 8.0
2017-Nov-17 13:00N 50°04' W 003°36'4 7.9
2017-Nov-17 12:30N 50°04' W 003°42'4 7.9
2017-Nov-17 12:00N 50°03' W 003°48'4 7.9
2017-Nov-17 11:30N 50°03' W 003°54'4 8.2
2017-Nov-17 11:00N 50°02' W 004°00'4 8.5
2017-Nov-17 10:30N 50°02' W 004°07'4 8.6
2017-Nov-17 10:00N 50°01' W 004°14'4 8.7
2017-Nov-17 09:30N 50°00' W 004°20'4 8.9
2017-Nov-17 09:00N 49°59' W 004°27'5 8.9
2017-Nov-17 08:29N 49°58' W 004°34'6 9.0
2017-Nov-17 07:48N 49°57' W 004°44'3 9.3
2017-Nov-17 07:28N 49°57' W 004°48'5 9.3
2017-Nov-17 06:59N 49°56' W 004°55'5 9.6
2017-Nov-17 06:30N 49°55' W 005°02'510.1
2017-Nov-17 06:00N 49°54' W 005°10'1010.5
2017-Nov-17 05:05N 49°54' W 005°25'210.5
2017-Nov-17 04:54N 49°54' W 005°28'410.4
2017-Nov-17 04:30N 49°54' W 005°34'810.1
2017-Nov-17 03:43N 49°54' W 005°47'2 9.9
2017-Nov-17 03:29N 49°54' W 005°50'6 8.7
2017-Nov-17 02:45N 49°57' W 005°59'2 9.7
2017-Nov-17 02:29N 49°59' W 005°60'5 9.3
2017-Nov-17 01:58N 50°04' W 005°60'4 9.1
2017-Nov-17 01:29N 50°09' W 005°60'4 9.1
2017-Nov-17 01:00N 50°13' W 005°60'5 9.5
2017-Nov-17 00:30N 50°18' W 005°60'5 9.7
2017-Nov-16 23:58N 50°23' W 005°60'9810.2
2017-Nov-16 14:19N 52°01' W 005°47'123 8.9
2017-Nov-16 00:23N 53°46' W 004°01'1610.3
2017-Nov-15 22:50N 53°55' W 003°38'310.2
2017-Nov-15 22:30N 53°55' W 003°32'5 9.9
2017-Nov-15 22:00N 53°56' W 003°24'5 9.6
2017-Nov-15 21:30N 53°58' W 003°16'5 9.6
2017-Nov-15 21:00N 54°02' W 003°11'4 6.8
2017-Nov-15 20:25N 54°06' W 003°13'0 0.4
2017-Nov-15 20:01N 54°06' W 003°13'  
2017-Nov-13 02:00N 52°26' W 005°44'510.1
2017-Nov-13 01:30N 52°22' W 005°48'510.0
2017-Nov-13 01:00N 52°18' W 005°52'5 9.5
2017-Nov-13 00:30N 52°14' W 005°55'7 8.6
2017-Nov-12 23:42N 52°07' W 005°60'2 8.0
2017-Nov-12 23:30N 52°06' W 006°01'4 8.3
2017-Nov-12 22:59N 52°03' W 006°07'4 8.6
2017-Nov-12 22:30N 52°01' W 006°13'4 8.8
2017-Nov-12 22:00N 51°59' W 006°19'5 9.3
2017-Nov-12 21:29N 51°58' W 006°26'5 9.7
2017-Nov-12 21:00N 51°56' W 006°33'5 9.9
2017-Nov-12 20:30N 51°54' W 006°41'610.2
2017-Nov-12 19:58N 51°52' W 006°49'510.2
2017-Nov-12 19:30N 51°50' W 006°56'510.3
2017-Nov-12 19:00N 51°48' W 007°04'510.3
2017-Nov-12 18:30N 51°45' W 007°11'510.4
2017-Nov-12 18:00N 51°43' W 007°18'510.4
2017-Nov-12 17:30N 51°40' W 007°26'510.4
2017-Nov-12 17:00N 51°40' W 007°34'510.5
2017-Nov-12 16:30N 51°39' W 007°42'4 8.5
2017-Nov-12 16:00N 51°35' W 007°45'510.3
2017-Nov-12 15:30N 51°30' W 007°43'510.2
2017-Nov-12 15:00N 51°25' W 007°42'510.0
2017-Nov-12 14:30N 51°20' W 007°40'610.0
2017-Nov-12 13:54N 51°14' W 007°39'103 6.0
2017-Nov-11 20:47N 49°44' W 006°19'1 4.2
2017-Nov-11 20:27N 49°44' W 006°17'2 4.8
2017-Nov-11 19:59N 49°45' W 006°14'4 6.1
2017-Nov-11 19:23N 49°46' W 006°08'3 7.1
2017-Nov-11 18:59N 49°46' W 006°04'5 6.8
2017-Nov-11 18:15N 49°47' W 005°57'12 6.3
2017-Nov-11 16:25N 49°50' W 005°39'17 6.1
2017-Nov-11 13:40N 49°55' W 005°14'1 6.6
2017-Nov-11 13:28N 49°55' W 005°12'3 6.9
2017-Nov-11 13:01N 49°56' W 005°07'3 6.8
2017-Nov-11 12:30N 49°56' W 005°02'4 7.2
2017-Nov-11 12:00N 49°57' W 004°56'4 7.0
2017-Nov-11 11:30N 49°58' W 004°51'3 7.0
2017-Nov-11 11:00N 49°58' W 004°46'3 6.7
2017-Nov-11 10:31N 49°59' W 004°41'3 6.9
2017-Nov-11 10:00N 49°60' W 004°36'3 6.0
2017-Nov-11 09:27N 50°01' W 004°31'3 6.2
2017-Nov-11 09:00N 50°01' W 004°26'3 6.3
2017-Nov-11 08:30N 50°02' W 004°21'3 6.4
2017-Nov-11 08:00N 50°02' W 004°17'3 6.6
2017-Nov-11 07:30N 50°03' W 004°12'3 5.2
2017-Nov-11 07:00N 50°04' W 004°07'3 6.8
2017-Nov-11 06:30N 50°04' W 004°02'3 6.3
2017-Nov-11 06:01N 50°05' W 003°58'3 6.3
2017-Nov-11 05:30N 50°05' W 003°53'3 6.6
2017-Nov-11 05:00N 50°06' W 003°48'3 6.1
2017-Nov-11 04:30N 50°07' W 003°43'3 6.4
2017-Nov-11 04:00N 50°07' W 003°38'3 6.1
2017-Nov-11 03:30N 50°08' W 003°33'3 5.5
2017-Nov-11 03:00N 50°08' W 003°29'3 5.4
2017-Nov-11 02:30N 50°09' W 003°25'3 6.2
2017-Nov-11 02:00N 50°09' W 003°20'3 6.3
2017-Nov-11 01:31N 50°10' W 003°15'4 7.3
2017-Nov-11 01:00N 50°10' W 003°10'4 7.5
2017-Nov-11 00:30N 50°11' W 003°04'4 7.8
2017-Nov-11 00:00N 50°12' W 002°58'4 8.2
2017-Nov-10 23:31N 50°13' W 002°52'4 8.3
2017-Nov-10 23:00N 50°14' W 002°45'5211.3
2017-Nov-10 18:23N 50°23' W 001°25'512.5
2017-Nov-10 18:01N 50°24' W 001°18'2411.4
2017-Nov-10 15:52N 50°28' W 000°40'410.1
2017-Nov-10 15:29N 50°29' W 000°34'5 9.6
2017-Nov-10 15:01N 50°29' W 000°27'4 8.6
2017-Nov-10 14:31N 50°30' W 000°20'4 8.2
2017-Nov-10 14:01N 50°31' W 000°14'4 7.5
2017-Nov-10 13:30N 50°32' W 000°08'4 7.2
2017-Nov-10 13:00N 50°32' W 000°03'4 7.8
2017-Nov-10 12:31N 50°33' E 000°03'4 8.3
2017-Nov-10 12:01N 50°34' E 000°10'4 8.6
2017-Nov-10 11:30N 50°36' E 000°16'5 9.4
2017-Nov-10 11:01N 50°37' E 000°23'5 9.9
2017-Nov-10 10:30N 50°38' E 000°31'510.2
2017-Nov-10 10:00N 50°41' E 000°38'510.7
2017-Nov-10 09:30N 50°44' E 000°45'711.0
2017-Nov-10 08:53N 50°48' E 000°54'510.8
2017-Nov-10 08:28N 50°50' E 000°59'510.7
2017-Nov-10 08:00N 50°53' E 001°06'510.5
2017-Nov-10 07:30N 50°56' E 001°12'5 9.4
2017-Nov-10 07:00N 50°59' E 001°18'4 8.3
2017-Nov-10 06:31N 51°02' E 001°23'4 7.9
2017-Nov-10 06:01N 51°05' E 001°28'4 7.6
2017-Nov-10 05:31N 51°07' E 001°32'4 7.4
2017-Nov-10 05:01N 51°10' E 001°37'4 7.6
2017-Nov-10 04:31N 51°12' E 001°41'4 7.8
2017-Nov-10 04:01N 51°15' E 001°46'5 9.1
2017-Nov-10 03:31N 51°19' E 001°48'5 9.8
2017-Nov-10 03:01N 51°24' E 001°52'510.2
2017-Nov-10 02:31N 51°28' E 001°56'510.9
2017-Nov-10 02:00N 51°32' E 002°02'811.7
2017-Nov-10 01:18N 51°38' E 002°11'  
Track history (hours):
 
Tides and Currents Weather Stations Pressure Air Temp Water Temp Dewpoint Dewpoint Depression Visibility Wind Speed Wind Dir Waves Ship Positions

Abis Bremen

Last reported at 2017-Nov-20 00:30 UTC. Time now 2017-Nov-21 08:19 UTC.
Position N 51°41' E 004°36'.

Length 90 m; draft 5.2 m.

Type: Ship. MMSI: 246778880.

Date/timePositionNaut miles runAvg speedWind from/ knotsBaromVisibWave heightAir tempDewpointWater temp
2017-Nov-20 00:30N 51°41' E 004°36'0 0.0
2017-Nov-20 00:00N 51°41' E 004°36'0 0.0
2017-Nov-19 23:30N 51°41' E 004°36'0 0.0
2017-Nov-19 23:00N 51°41' E 004°36'0 0.0
2017-Nov-19 22:27N 51°41' E 004°36'0 0.0
2017-Nov-19 22:00N 51°41' E 004°36'0 0.0
2017-Nov-19 21:30N 51°41' E 004°36'0 0.0
2017-Nov-19 21:00N 51°41' E 004°36'0 0.0
2017-Nov-19 20:30N 51°41' E 004°36'0 0.0
2017-Nov-19 20:00N 51°41' E 004°36'0 0.0
2017-Nov-19 19:30N 51°41' E 004°36'0 0.0
2017-Nov-19 19:00N 51°41' E 004°36'0 0.0
2017-Nov-19 18:27N 51°41' E 004°36'0 0.0
2017-Nov-19 18:00N 51°41' E 004°36'0 0.0
2017-Nov-19 17:30N 51°41' E 004°36'0 0.0
2017-Nov-19 17:00N 51°41' E 004°36'0 0.0
2017-Nov-19 16:30N 51°41' E 004°36'0 0.0
2017-Nov-19 16:00N 51°41' E 004°36'0 0.0
2017-Nov-19 15:30N 51°41' E 004°36'0 0.0
2017-Nov-19 15:00N 51°41' E 004°36'0 0.0
2017-Nov-19 14:27N 51°41' E 004°36'0 0.0
2017-Nov-19 14:00N 51°41' E 004°36'0 0.0
2017-Nov-19 13:30N 51°41' E 004°36'0 0.0
2017-Nov-19 13:00N 51°41' E 004°36'0 0.0
2017-Nov-19 12:30N 51°41' E 004°36'0 0.0
2017-Nov-19 12:00N 51°41' E 004°36'0 0.0
2017-Nov-19 11:30N 51°41' E 004°36'0 0.0
2017-Nov-19 11:00N 51°41' E 004°36'0 0.0
2017-Nov-19 10:30N 51°41' E 004°36'0 0.0
2017-Nov-19 10:00N 51°41' E 004°36'0 0.0
2017-Nov-19 09:30N 51°41' E 004°36'0 0.0
2017-Nov-19 09:00N 51°41' E 004°36'0 0.0
2017-Nov-19 08:30N 51°41' E 004°36'0 0.0
2017-Nov-19 07:57N 51°41' E 004°36'0 0.0
2017-Nov-19 07:30N 51°41' E 004°36'0 0.0
2017-Nov-19 07:00N 51°41' E 004°36'0 0.0
2017-Nov-19 06:27N 51°41' E 004°36'0 0.0
2017-Nov-19 06:00N 51°41' E 004°36'1 1.1
2017-Nov-19 05:30N 51°42' E 004°35'4 8.6
2017-Nov-19 05:00N 51°46' E 004°38'510.4
2017-Nov-19 04:30N 51°50' E 004°33'612.4
2017-Nov-19 04:00N 51°51' E 004°23'510.6
2017-Nov-19 03:30N 51°54' E 004°16'713.6
2017-Nov-19 03:00N 51°58' E 004°08'611.8
2017-Nov-19 02:31N 52°00' E 003°59'611.7
2017-Nov-19 02:00N 52°00' E 003°49'611.0
2017-Nov-19 01:29N 51°59' E 003°40'10 9.5
2017-Nov-19 00:24N 51°55' E 003°24'410.0
2017-Nov-19 00:00N 51°54' E 003°18'9 7.8
2017-Nov-18 22:51N 51°51' E 003°04'17 4.4
2017-Nov-18 18:54N 51°45' E 002°38'13 5.8
2017-Nov-18 16:38N 51°35' E 002°24'1 7.1
2017-Nov-18 16:30N 51°34' E 002°23'4 7.2
2017-Nov-18 16:00N 51°31' E 002°20'4 7.4
2017-Nov-18 15:31N 51°28' E 002°16'4 7.8
2017-Nov-18 15:00N 51°25' E 002°12'4 8.2
2017-Nov-18 14:31N 51°22' E 002°09'4 8.2
2017-Nov-18 14:01N 51°18' E 002°06'4 8.7
2017-Nov-18 13:30N 51°14' E 002°03'5 9.3
2017-Nov-18 13:00N 51°11' E 001°57'510.0
2017-Nov-18 12:31N 51°08' E 001°51'510.3
2017-Nov-18 12:00N 51°04' E 001°45'510.6
2017-Nov-18 11:30N 51°00' E 001°39'510.7
2017-Nov-18 11:00N 50°57' E 001°34'510.1
2017-Nov-18 10:30N 50°52' E 001°29'31 8.2
2017-Nov-18 06:43N 50°30' E 000°54'3 9.5
2017-Nov-18 06:22N 50°30' E 000°49'4 9.4
2017-Nov-18 05:59N 50°28' E 000°44'27 8.6
2017-Nov-18 02:52N 50°21' E 000°03'4 8.3
2017-Nov-18 02:21N 50°20' W 000°03'3 8.2
2017-Nov-18 02:00N 50°20' W 000°08'4 8.1
2017-Nov-18 01:29N 50°19' W 000°14'28 8.7
2017-Nov-17 22:19N 50°16' W 000°57'711.1
2017-Nov-17 21:44N 50°15' W 001°07'311.6
2017-Nov-17 21:30N 50°15' W 001°12'612.0
2017-Nov-17 21:00N 50°15' W 001°21'612.4
2017-Nov-17 20:30N 50°15' W 001°31'4012.6
2017-Nov-17 17:21N 50°12' W 002°32'510.8
2017-Nov-17 16:55N 50°11' W 002°40'410.4
2017-Nov-17 16:30N 50°11' W 002°46'510.3
2017-Nov-17 16:00N 50°10' W 002°54'5 9.9
2017-Nov-17 15:30N 50°09' W 003°02'5 9.8
2017-Nov-17 15:00N 50°08' W 003°09'5 9.3
2017-Nov-17 14:30N 50°07' W 003°16'4 8.9
2017-Nov-17 14:00N 50°06' W 003°23'6 8.4
2017-Nov-17 13:18N 50°05' W 003°32'2 8.0
2017-Nov-17 13:00N 50°04' W 003°36'4 7.9
2017-Nov-17 12:30N 50°04' W 003°42'4 7.9
2017-Nov-17 12:00N 50°03' W 003°48'4 7.9
2017-Nov-17 11:30N 50°03' W 003°54'4 8.2
2017-Nov-17 11:00N 50°02' W 004°00'4 8.5
2017-Nov-17 10:30N 50°02' W 004°07'4 8.6
2017-Nov-17 10:00N 50°01' W 004°14'4 8.7
2017-Nov-17 09:30N 50°00' W 004°20'4 8.9
2017-Nov-17 09:00N 49°59' W 004°27'5 8.9
2017-Nov-17 08:29N 49°58' W 004°34'6 9.0
2017-Nov-17 07:48N 49°57' W 004°44'3 9.3
2017-Nov-17 07:28N 49°57' W 004°48'5 9.3
2017-Nov-17 06:59N 49°56' W 004°55'5 9.6
2017-Nov-17 06:30N 49°55' W 005°02'510.1
2017-Nov-17 06:00N 49°54' W 005°10'1010.5
2017-Nov-17 05:05N 49°54' W 005°25'210.5
2017-Nov-17 04:54N 49°54' W 005°28'410.4
2017-Nov-17 04:30N 49°54' W 005°34'810.1
2017-Nov-17 03:43N 49°54' W 005°47'2 9.9
2017-Nov-17 03:29N 49°54' W 005°50'6 8.7
2017-Nov-17 02:45N 49°57' W 005°59'2 9.7
2017-Nov-17 02:29N 49°59' W 005°60'5 9.3
2017-Nov-17 01:58N 50°04' W 005°60'4 9.1
2017-Nov-17 01:29N 50°09' W 005°60'4 9.1
2017-Nov-17 01:00N 50°13' W 005°60'5 9.5
2017-Nov-17 00:30N 50°18' W 005°60'5 9.7
2017-Nov-16 23:58N 50°23' W 005°60'9810.2
2017-Nov-16 14:19N 52°01' W 005°47'123 8.9
2017-Nov-16 00:23N 53°46' W 004°01'1610.3
2017-Nov-15 22:50N 53°55' W 003°38'310.2
2017-Nov-15 22:30N 53°55' W 003°32'5 9.9
2017-Nov-15 22:00N 53°56' W 003°24'5 9.6
2017-Nov-15 21:30N 53°58' W 003°16'5 9.6
2017-Nov-15 21:00N 54°02' W 003°11'4 6.8
2017-Nov-15 20:25N 54°06' W 003°13'0 0.4
2017-Nov-15 20:01N 54°06' W 003°13'  
2017-Nov-13 02:00N 52°26' W 005°44'510.1
2017-Nov-13 01:30N 52°22' W 005°48'510.0
2017-Nov-13 01:00N 52°18' W 005°52'5 9.5
2017-Nov-13 00:30N 52°14' W 005°55'7 8.6
2017-Nov-12 23:42N 52°07' W 005°60'2 8.0
2017-Nov-12 23:30N 52°06' W 006°01'4 8.3
2017-Nov-12 22:59N 52°03' W 006°07'4 8.6
2017-Nov-12 22:30N 52°01' W 006°13'4 8.8
2017-Nov-12 22:00N 51°59' W 006°19'5 9.3
2017-Nov-12 21:29N 51°58' W 006°26'5 9.7
2017-Nov-12 21:00N 51°56' W 006°33'5 9.9
2017-Nov-12 20:30N 51°54' W 006°41'610.2
2017-Nov-12 19:58N 51°52' W 006°49'510.2
2017-Nov-12 19:30N 51°50' W 006°56'510.3
2017-Nov-12 19:00N 51°48' W 007°04'510.3
2017-Nov-12 18:30N 51°45' W 007°11'510.4
2017-Nov-12 18:00N 51°43' W 007°18'510.4
2017-Nov-12 17:30N 51°40' W 007°26'510.4
2017-Nov-12 17:00N 51°40' W 007°34'510.5
2017-Nov-12 16:30N 51°39' W 007°42'4 8.5
2017-Nov-12 16:00N 51°35' W 007°45'510.3
2017-Nov-12 15:30N 51°30' W 007°43'510.2
2017-Nov-12 15:00N 51°25' W 007°42'510.0
2017-Nov-12 14:30N 51°20' W 007°40'610.0
2017-Nov-12 13:54N 51°14' W 007°39'103 6.0
2017-Nov-11 20:47N 49°44' W 006°19'1 4.2
2017-Nov-11 20:27N 49°44' W 006°17'2 4.8
2017-Nov-11 19:59N 49°45' W 006°14'4 6.1
2017-Nov-11 19:23N 49°46' W 006°08'3 7.1
2017-Nov-11 18:59N 49°46' W 006°04'5 6.8
2017-Nov-11 18:15N 49°47' W 005°57'12 6.3
2017-Nov-11 16:25N 49°50' W 005°39'17 6.1
2017-Nov-11 13:40N 49°55' W 005°14'1 6.6
2017-Nov-11 13:28N 49°55' W 005°12'3 6.9
2017-Nov-11 13:01N 49°56' W 005°07'3 6.8
2017-Nov-11 12:30N 49°56' W 005°02'4 7.2
2017-Nov-11 12:00N 49°57' W 004°56'4 7.0
2017-Nov-11 11:30N 49°58' W 004°51'3 7.0
2017-Nov-11 11:00N 49°58' W 004°46'3 6.7
2017-Nov-11 10:31N 49°59' W 004°41'3 6.9
2017-Nov-11 10:00N 49°60' W 004°36'3 6.0
2017-Nov-11 09:27N 50°01' W 004°31'3 6.2
2017-Nov-11 09:00N 50°01' W 004°26'3 6.3
2017-Nov-11 08:30N 50°02' W 004°21'3 6.4
2017-Nov-11 08:00N 50°02' W 004°17'3 6.6
2017-Nov-11 07:30N 50°03' W 004°12'3 5.2
2017-Nov-11 07:00N 50°04' W 004°07'3 6.8
2017-Nov-11 06:30N 50°04' W 004°02'3 6.3
2017-Nov-11 06:01N 50°05' W 003°58'3 6.3
2017-Nov-11 05:30N 50°05' W 003°53'3 6.6
2017-Nov-11 05:00N 50°06' W 003°48'3 6.1
2017-Nov-11 04:30N 50°07' W 003°43'3 6.4
2017-Nov-11 04:00N 50°07' W 003°38'3 6.1
2017-Nov-11 03:30N 50°08' W 003°33'3 5.5
2017-Nov-11 03:00N 50°08' W 003°29'3 5.4
2017-Nov-11 02:30N 50°09' W 003°25'3 6.2
2017-Nov-11 02:00N 50°09' W 003°20'3 6.3
2017-Nov-11 01:31N 50°10' W 003°15'4 7.3
2017-Nov-11 01:00N 50°10' W 003°10'4 7.5
2017-Nov-11 00:30N 50°11' W 003°04'4 7.8
2017-Nov-11 00:00N 50°12' W 002°58'4 8.2
2017-Nov-10 23:31N 50°13' W 002°52'4 8.3
2017-Nov-10 23:00N 50°14' W 002°45'5211.3
2017-Nov-10 18:23N 50°23' W 001°25'512.5
2017-Nov-10 18:01N 50°24' W 001°18'2411.4
2017-Nov-10 15:52N 50°28' W 000°40'410.1
2017-Nov-10 15:29N 50°29' W 000°34'5 9.6
2017-Nov-10 15:01N 50°29' W 000°27'4 8.6
2017-Nov-10 14:31N 50°30' W 000°20'4 8.2
2017-Nov-10 14:01N 50°31' W 000°14'4 7.5
2017-Nov-10 13:30N 50°32' W 000°08'4 7.2
2017-Nov-10 13:00N 50°32' W 000°03'4 7.8
2017-Nov-10 12:31N 50°33' E 000°03'4 8.3
2017-Nov-10 12:01N 50°34' E 000°10'4 8.6
2017-Nov-10 11:30N 50°36' E 000°16'5 9.4
2017-Nov-10 11:01N 50°37' E 000°23'5 9.9
2017-Nov-10 10:30N 50°38' E 000°31'510.2
2017-Nov-10 10:00N 50°41' E 000°38'510.7
2017-Nov-10 09:30N 50°44' E 000°45'711.0
2017-Nov-10 08:53N 50°48' E 000°54'510.8
2017-Nov-10 08:28N 50°50' E 000°59'510.7
2017-Nov-10 08:00N 50°53' E 001°06'510.5
2017-Nov-10 07:30N 50°56' E 001°12'5 9.4
2017-Nov-10 07:00N 50°59' E 001°18'4 8.3
2017-Nov-10 06:31N 51°02' E 001°23'4 7.9
2017-Nov-10 06:01N 51°05' E 001°28'4 7.6
2017-Nov-10 05:31N 51°07' E 001°32'4 7.4
2017-Nov-10 05:01N 51°10' E 001°37'4 7.6
2017-Nov-10 04:31N 51°12' E 001°41'4 7.8
2017-Nov-10 04:01N 51°15' E 001°46'5 9.1
2017-Nov-10 03:31N 51°19' E 001°48'5 9.8
2017-Nov-10 03:01N 51°24' E 001°52'510.2
2017-Nov-10 02:31N 51°28' E 001°56'510.9
2017-Nov-10 02:00N 51°32' E 002°02'811.7
2017-Nov-10 01:18N 51°38' E 002°11'  

Dump ship's entire track history